createdAt,value
2022-12-14T00:01:49.513Z,-7.91
2022-12-14T00:04:18.679Z,-7.94
2022-12-14T00:06:47.344Z,-7.99
2022-12-14T00:09:18.112Z,-8.05
2022-12-14T00:11:46.805Z,-8.07
2022-12-14T00:14:15.554Z,-8.10
2022-12-14T00:16:44.276Z,-8.13
2022-12-14T00:19:13.029Z,-8.20
2022-12-14T00:21:41.693Z,-8.23
2022-12-14T00:24:12.384Z,-8.27
2022-12-14T00:26:41.062Z,-8.34
2022-12-14T00:29:09.883Z,-8.38
2022-12-14T00:31:40.045Z,-8.42
2022-12-14T00:34:09.127Z,-8.47
2022-12-14T00:36:39.515Z,-8.52
2022-12-14T00:39:11.419Z,-8.55
2022-12-14T00:41:41.604Z,-8.61
2022-12-14T00:44:10.751Z,-8.65
2022-12-14T00:46:40.707Z,-8.69
2022-12-14T00:49:10.613Z,-8.73
2022-12-14T00:51:41.757Z,-8.78
2022-12-14T00:54:11.238Z,-8.82
2022-12-14T00:56:40.145Z,-8.86
2022-12-14T00:59:11.607Z,-8.87
2022-12-14T01:01:40.459Z,-8.92
2022-12-14T01:04:21.089Z,-8.97
2022-12-14T01:06:53.157Z,-9.01
2022-12-14T01:09:24.965Z,-9.06
2022-12-14T01:11:53.930Z,-9.07
2022-12-14T01:14:23.413Z,-9.08
2022-12-14T01:16:52.178Z,-9.14
2022-12-14T01:19:20.829Z,-9.21
2022-12-14T01:21:49.576Z,-9.24
2022-12-14T01:24:19.406Z,-9.28
2022-12-14T01:26:48.381Z,-9.30
2022-12-14T01:29:17.254Z,-9.34
2022-12-14T01:31:48.841Z,-9.40
2022-12-14T01:34:18.746Z,-9.42
2022-12-14T01:36:48.552Z,-9.42
2022-12-14T01:39:18.887Z,-9.48
2022-12-14T01:41:51.645Z,-9.50
2022-12-14T01:44:52.764Z,-9.52
2022-12-14T01:47:28.634Z,-9.58
2022-12-14T01:50:03.013Z,-9.58
2022-12-14T01:52:39.113Z,-9.61
2022-12-14T01:55:13.765Z,-9.65
2022-12-14T01:57:47.687Z,-9.66
2022-12-14T02:00:18.087Z,-9.72
2022-12-14T02:02:53.006Z,-9.78
2022-12-14T02:05:25.131Z,-9.82
2022-12-14T02:07:56.483Z,-9.85
2022-12-14T02:10:29.379Z,-9.85
2022-12-14T02:13:04.141Z,-9.87
2022-12-14T02:15:35.284Z,-9.91
2022-12-14T02:18:09.201Z,-9.94
2022-12-14T02:20:53.343Z,-9.97
2022-12-14T02:23:57.740Z,-10.00
2022-12-14T02:26:57.143Z,-10.06
2022-12-14T02:29:56.219Z,-10.07
2022-12-14T02:32:50.158Z,-10.11
2022-12-14T02:35:30.606Z,-10.14
2022-12-14T02:38:12.714Z,-10.17
2022-12-14T02:40:54.459Z,-10.17
2022-12-14T02:43:31.152Z,-10.19
2022-12-14T02:46:10.510Z,-10.21
2022-12-14T02:48:45.292Z,-10.22
2022-12-14T02:51:24.754Z,-10.25
2022-12-14T02:54:01.156Z,-10.25
2022-12-14T02:56:37.147Z,-10.31
2022-12-14T02:59:10.451Z,-10.31
2022-12-14T03:01:41.871Z,-10.35
2022-12-14T03:04:16.181Z,-10.34
2022-12-14T03:06:57.260Z,-10.38
2022-12-14T03:09:29.831Z,-10.39
2022-12-14T03:12:04.484Z,-10.39
2022-12-14T03:14:39.066Z,-10.42
2022-12-14T03:17:17.579Z,-10.42
2022-12-14T03:19:53.257Z,-10.45
2022-12-14T03:22:28.721Z,-10.45
2022-12-14T03:25:01.626Z,-10.49
2022-12-14T03:27:33.928Z,-10.52
2022-12-14T03:30:08.577Z,-10.52
2022-12-14T03:32:44.737Z,-10.55
2022-12-14T03:35:19.465Z,-10.55
2022-12-14T03:37:54.883Z,-10.58
2022-12-14T03:40:30.939Z,-10.58
2022-12-14T03:43:06.931Z,-10.61
2022-12-14T03:45:46.938Z,-10.63
2022-12-14T03:48:27.864Z,-10.61
2022-12-14T03:51:07.332Z,-10.65
2022-12-14T03:53:43.925Z,-10.62
2022-12-14T03:56:19.869Z,-10.65
2022-12-14T03:59:01.419Z,-10.66
2022-12-14T04:01:40.394Z,-10.65
2022-12-14T04:04:15.611Z,-10.68
2022-12-14T04:06:52.957Z,-10.70
2022-12-14T04:09:32.239Z,-10.73
2022-12-14T04:12:26.756Z,-10.75
2022-12-14T04:15:20.790Z,-10.76
2022-12-14T04:18:27.700Z,-10.76
2022-12-14T04:21:02.002Z,-10.77
2022-12-14T04:23:52.601Z,-10.80
2022-12-14T04:26:32.340Z,-10.80
2022-12-14T04:29:25.983Z,-10.81
2022-12-14T04:32:00.680Z,-10.83
2022-12-14T04:34:32.590Z,-10.83
2022-12-14T04:37:06.139Z,-10.83
2022-12-14T04:39:40.413Z,-10.86
2022-12-14T04:42:13.964Z,-10.86
2022-12-14T04:44:47.445Z,-10.87
2022-12-14T04:47:19.454Z,-10.90
2022-12-14T04:49:54.828Z,-10.89
2022-12-14T04:52:31.239Z,-10.93
2022-12-14T04:55:05.465Z,-10.96
2022-12-14T04:57:41.247Z,-10.97
2022-12-14T05:00:14.409Z,-10.98
2022-12-14T05:03:07.356Z,-11.03
2022-12-14T05:05:42.932Z,-11.04
2022-12-14T05:08:22.760Z,-11.09
2022-12-14T05:11:21.866Z,-11.09
2022-12-14T05:13:52.112Z,-11.09
2022-12-14T05:16:25.627Z,-11.14
2022-12-14T05:18:54.728Z,-11.15
2022-12-14T05:21:42.089Z,-11.15
2022-12-14T05:24:10.910Z,-11.15
2022-12-14T05:26:41.926Z,-11.14
2022-12-14T05:29:14.480Z,-11.15
2022-12-14T05:31:49.311Z,-11.17
2022-12-14T05:34:18.947Z,-11.12
2022-12-14T05:36:47.833Z,-11.12
2022-12-14T05:39:17.509Z,-11.15
2022-12-14T05:41:47.871Z,-11.14
2022-12-14T05:44:20.073Z,-11.15
2022-12-14T05:46:49.870Z,-11.12
2022-12-14T05:49:21.736Z,-11.12
2022-12-14T05:51:50.662Z,-11.09
2022-12-14T05:54:20.588Z,-11.04
2022-12-14T05:56:50.979Z,-11.05
2022-12-14T05:59:20.452Z,-11.04
2022-12-14T06:01:52.099Z,-11.00
2022-12-14T06:04:23.108Z,-10.97
2022-12-14T06:06:52.513Z,-10.93
2022-12-14T06:09:22.400Z,-10.93
2022-12-14T06:11:52.312Z,-10.87
2022-12-14T06:14:23.676Z,-10.86
2022-12-14T06:16:52.380Z,-10.80
2022-12-14T06:19:21.336Z,-10.80
2022-12-14T06:21:52.933Z,-10.77
2022-12-14T06:24:23.171Z,-10.79
2022-12-14T06:26:52.367Z,-10.77
2022-12-14T06:29:22.682Z,-10.77
2022-12-14T06:31:52.656Z,-10.76
2022-12-14T06:34:26.369Z,-10.76
2022-12-14T06:36:57.274Z,-10.75
2022-12-14T06:39:28.843Z,-10.72
2022-12-14T06:41:58.738Z,-10.70
2022-12-14T06:44:27.550Z,-10.68
2022-12-14T06:46:57.056Z,-10.66
2022-12-14T06:49:32.485Z,-10.66
2022-12-14T06:52:01.181Z,-10.62
2022-12-14T06:54:30.232Z,-10.61
2022-12-14T06:56:58.948Z,-10.58
2022-12-14T06:59:28.218Z,-10.56
2022-12-14T07:01:57.211Z,-10.53
2022-12-14T07:04:25.952Z,-10.50
2022-12-14T07:06:54.790Z,-10.48
2022-12-14T07:09:24.310Z,-10.42
2022-12-14T07:11:52.960Z,-10.38
2022-12-14T07:14:24.824Z,-10.36
2022-12-14T07:16:54.023Z,-10.32
2022-12-14T07:19:22.989Z,-10.25
2022-12-14T07:21:54.069Z,-10.19
2022-12-14T07:24:22.915Z,-10.14
2022-12-14T07:26:52.729Z,-10.11
2022-12-14T07:29:21.734Z,-10.07
2022-12-14T07:31:50.847Z,-10.01
2022-12-14T07:34:20.141Z,-9.96
2022-12-14T07:36:51.370Z,-9.94
2022-12-14T07:39:21.189Z,-9.86
2022-12-14T07:41:50.418Z,-9.83
2022-12-14T07:44:22.698Z,-9.73
2022-12-14T07:46:54.410Z,-9.68
2022-12-14T07:49:23.660Z,-9.62
2022-12-14T07:51:53.350Z,-9.56
2022-12-14T07:54:25.948Z,-9.51
2022-12-14T07:56:54.689Z,-9.42
2022-12-14T07:59:23.677Z,-9.35
2022-12-14T08:01:55.108Z,-9.28
2022-12-14T08:04:24.277Z,-9.20
2022-12-14T08:06:53.166Z,-9.13
2022-12-14T08:09:21.980Z,-9.06
2022-12-14T08:11:50.754Z,-8.96
2022-12-14T08:14:19.863Z,-8.90
2022-12-14T08:16:50.432Z,-8.83
2022-12-14T08:19:20.578Z,-8.76
2022-12-14T08:21:49.297Z,-8.69
2022-12-14T08:24:18.188Z,-8.58
2022-12-14T08:26:49.563Z,-8.51
2022-12-14T08:29:21.862Z,-8.44
2022-12-14T08:31:50.777Z,-8.36
2022-12-14T08:34:22.260Z,-8.26
2022-12-14T08:36:50.971Z,-8.19
2022-12-14T08:39:19.844Z,-8.09
2022-12-14T08:41:48.660Z,-7.96
2022-12-14T08:44:18.254Z,-7.89
2022-12-14T08:46:50.592Z,-7.79
2022-12-14T08:49:25.354Z,-7.69
2022-12-14T08:51:57.919Z,-7.59
2022-12-14T08:54:26.799Z,-7.48
2022-12-14T08:56:55.546Z,-7.41
2022-12-14T08:59:51.987Z,-7.31
2022-12-14T09:02:13.505Z,-7.22
2022-12-14T09:04:43.705Z,-7.12
2022-12-14T09:07:12.597Z,-6.94
2022-12-14T09:09:41.883Z,-6.77
2022-12-14T09:12:12.281Z,-6.66
2022-12-14T09:14:41.306Z,-6.54
2022-12-14T09:17:10.005Z,-6.47
2022-12-14T09:19:38.876Z,-6.36
2022-12-14T09:22:07.734Z,-6.29
2022-12-14T09:24:36.996Z,-6.23
2022-12-14T09:27:05.657Z,-6.18
2022-12-14T09:29:34.554Z,-6.13
2022-12-14T09:32:03.546Z,-6.06
2022-12-14T09:34:32.350Z,-6.03
2022-12-14T09:37:04.153Z,-5.97
2022-12-14T09:39:35.259Z,-5.88
2022-12-14T09:42:20.346Z,-5.84
2022-12-14T09:45:01.287Z,-5.75
2022-12-14T09:47:35.501Z,-5.66
2022-12-14T09:50:05.172Z,-5.49
2022-12-14T09:52:39.572Z,-4.36
2022-12-14T09:55:20.190Z,-2.30
2022-12-14T09:57:53.499Z,-0.32
2022-12-14T10:00:23.178Z,1.32
2022-12-14T10:03:07.863Z,2.67
2022-12-14T10:06:01.207Z,3.85
2022-12-14T10:08:35.313Z,4.80
2022-12-14T10:11:11.344Z,5.42
2022-12-14T10:13:56.489Z,5.98
2022-12-14T10:16:31.972Z,6.43
2022-12-14T10:19:24.241Z,7.15
2022-12-14T10:21:57.122Z,7.84
2022-12-14T10:24:30.722Z,8.28
2022-12-14T10:27:01.387Z,8.63
2022-12-14T10:29:37.766Z,8.85
2022-12-14T10:32:19.334Z,8.92
2022-12-14T10:34:48.543Z,8.94
2022-12-14T10:37:30.796Z,8.78
2022-12-14T10:40:29.221Z,8.51
2022-12-14T10:43:21.596Z,8.28
2022-12-14T10:46:06.115Z,8.30
2022-12-14T10:48:50.398Z,8.33
2022-12-14T10:51:24.923Z,8.46
2022-12-14T10:53:59.938Z,8.25
2022-12-14T10:56:31.907Z,8.01
2022-12-14T10:59:26.886Z,7.49
2022-12-14T11:02:05.718Z,6.66
2022-12-14T11:04:39.307Z,5.83
2022-12-14T11:07:14.810Z,5.11
2022-12-14T11:09:46.802Z,4.42
2022-12-14T11:12:23.049Z,3.43
2022-12-14T11:14:55.550Z,2.55
2022-12-14T11:17:37.343Z,1.71
2022-12-14T11:20:17.461Z,0.89
2022-12-14T11:22:50.419Z,0.15
2022-12-14T11:25:32.066Z,-0.34
2022-12-14T11:28:36.170Z,-0.75
2022-12-14T11:31:12.193Z,-1.20
2022-12-14T11:33:49.809Z,-1.61
2022-12-14T11:36:27.289Z,-1.92
2022-12-14T11:38:57.419Z,-2.17
2022-12-14T11:41:30.654Z,-2.35
2022-12-14T11:44:21.635Z,-2.52
2022-12-14T11:46:54.639Z,-2.69
2022-12-14T11:49:29.140Z,-2.82
2022-12-14T11:51:58.930Z,-2.83
2022-12-14T11:54:28.367Z,-2.78
2022-12-14T11:57:01.606Z,-2.73
2022-12-14T11:59:38.501Z,-2.72
2022-12-14T12:02:17.876Z,-2.80
2022-12-14T12:04:52.852Z,-2.80
2022-12-14T12:07:26.080Z,-2.80
2022-12-14T12:09:55.475Z,-2.80
2022-12-14T12:12:24.255Z,-2.85
2022-12-14T12:14:58.255Z,-2.90
2022-12-14T12:17:40.396Z,-2.93
2022-12-14T12:20:28.132Z,-2.94
2022-12-14T12:23:03.175Z,-2.99
2022-12-14T12:25:37.658Z,-3.03
2022-12-14T12:28:16.283Z,-3.07
2022-12-14T12:30:50.988Z,-3.10
2022-12-14T12:33:32.597Z,-3.11
2022-12-14T12:36:04.845Z,-3.16
2022-12-14T12:38:49.760Z,-3.20
2022-12-14T13:07:44.815Z,-3.78
2022-12-14T13:10:19.777Z,-3.84
2022-12-14T13:12:51.527Z,-3.90
2022-12-14T13:15:27.247Z,-3.97
2022-12-14T13:18:00.324Z,-4.01
2022-12-14T13:20:31.857Z,-4.08
2022-12-14T13:23:21.648Z,-4.14
2022-12-14T13:26:06.279Z,-4.19
2022-12-14T13:28:50.514Z,-4.27
2022-12-14T13:31:35.555Z,-4.32
2022-12-14T13:34:28.368Z,-4.39
2022-12-14T13:37:20.310Z,-4.45
2022-12-14T13:40:20.316Z,-4.50
2022-12-14T13:42:59.022Z,-4.57
2022-12-14T13:45:40.077Z,-4.60
2022-12-14T13:48:20.263Z,-4.64
2022-12-14T13:51:01.821Z,-4.70
2022-12-14T13:53:38.134Z,-4.74
2022-12-14T13:56:08.028Z,-4.81
2022-12-14T13:58:43.127Z,-4.87
2022-12-14T14:01:16.083Z,-4.92
2022-12-14T14:03:56.394Z,-4.97
2022-12-14T14:06:41.430Z,-5.07
2022-12-14T14:09:59.167Z,-5.12
2022-12-14T14:12:38.729Z,-5.19
2022-12-14T14:16:11.251Z,-5.22
2022-12-14T14:18:47.200Z,-5.32
2022-12-14T14:21:52.472Z,-5.36
2022-12-14T14:24:27.584Z,-5.46
2022-12-14T14:27:10.707Z,-5.49
2022-12-14T14:29:46.670Z,-5.56
2022-12-14T14:32:38.234Z,-5.60
2022-12-14T14:35:22.865Z,-5.64
2022-12-14T14:38:01.531Z,-5.70
2022-12-14T14:41:06.672Z,-5.71
2022-12-14T14:43:32.160Z,-5.74
2022-12-14T14:46:07.285Z,-5.80
2022-12-14T14:48:40.700Z,-5.81
2022-12-14T14:51:21.197Z,-5.85
2022-12-14T14:57:55.407Z,-5.91
2022-12-14T15:00:25.178Z,-5.94
2022-12-14T15:02:55.552Z,-5.97
2022-12-14T15:05:43.820Z,-5.98
2022-12-14T15:08:22.529Z,-6.03
2022-12-14T15:10:54.000Z,-6.09
2022-12-14T15:13:28.429Z,-6.12
2022-12-14T15:15:58.971Z,-6.18
2022-12-14T15:18:30.583Z,-6.19
2022-12-14T15:21:03.432Z,-6.22
2022-12-14T15:23:38.002Z,-6.23
2022-12-14T15:26:16.963Z,-6.27
2022-12-14T15:28:52.795Z,-6.31
2022-12-14T15:31:30.935Z,-6.33
2022-12-14T15:34:01.260Z,-6.34
2022-12-14T15:36:34.954Z,-6.36
2022-12-14T15:39:04.499Z,-6.39
2022-12-14T15:41:35.312Z,-6.39
2022-12-14T15:44:20.473Z,-6.42
2022-12-14T15:46:55.103Z,-6.42
2022-12-14T15:49:24.236Z,-6.45
2022-12-14T15:51:57.125Z,-6.43
2022-12-14T15:54:28.854Z,-6.45
2022-12-14T15:56:59.941Z,-6.42
2022-12-14T15:59:32.031Z,-6.40
2022-12-14T16:02:15.101Z,-6.42
2022-12-14T16:04:45.524Z,-6.39
2022-12-14T16:07:19.384Z,-6.40
2022-12-14T16:09:51.952Z,-6.37
2022-12-14T16:12:24.294Z,-6.37
2022-12-14T16:14:56.910Z,-6.34
2022-12-14T16:17:31.615Z,-6.33
2022-12-14T16:20:04.797Z,-6.33
2022-12-14T16:22:38.363Z,-6.31
2022-12-14T16:25:19.817Z,-6.33
2022-12-14T16:27:50.929Z,-6.29
2022-12-14T16:30:30.640Z,-6.29
2022-12-14T16:33:18.250Z,-6.26
2022-12-14T16:35:58.078Z,-6.23
2022-12-14T16:38:27.277Z,-6.20
2022-12-14T16:41:05.187Z,-6.20
2022-12-14T16:43:37.613Z,-6.18
2022-12-14T16:46:21.129Z,-6.16
2022-12-14T16:49:19.466Z,-6.15
2022-12-14T16:52:07.237Z,-6.15
2022-12-14T16:54:41.008Z,-6.15
2022-12-14T16:57:20.443Z,-6.12
2022-12-14T17:00:02.266Z,-6.11
2022-12-14T17:02:36.308Z,-6.06
2022-12-14T17:05:16.530Z,-6.09
2022-12-14T17:07:47.665Z,-6.03
2022-12-14T17:10:25.231Z,-6.03
2022-12-14T17:13:01.929Z,-6.05
2022-12-14T17:15:39.123Z,-6.01
2022-12-14T17:18:13.987Z,-5.99
2022-12-14T17:20:46.763Z,-5.99
2022-12-14T17:23:18.520Z,-5.99
2022-12-14T17:25:49.024Z,-5.97
2022-12-14T17:28:25.048Z,-5.95
2022-12-14T17:30:57.538Z,-5.94
2022-12-14T17:33:28.792Z,-5.92
2022-12-14T17:35:58.478Z,-5.90
2022-12-14T17:38:27.508Z,-5.87
2022-12-14T17:41:02.863Z,-5.87
2022-12-14T17:43:35.600Z,-5.87
2022-12-14T17:46:07.131Z,-5.85
2022-12-14T17:48:40.658Z,-5.83
2022-12-14T17:51:25.166Z,-5.78
2022-12-14T17:53:56.150Z,-5.80
2022-12-14T17:56:30.282Z,-5.77
2022-12-14T17:59:01.714Z,-5.74
2022-12-14T18:04:22.535Z,-5.70
2022-12-14T18:07:00.909Z,-5.68
2022-12-14T18:09:34.040Z,-5.66
2022-12-14T18:14:55.000Z,-5.66
2022-12-14T18:17:25.149Z,-5.64
2022-12-14T18:19:59.457Z,-5.60
2022-12-14T18:22:28.989Z,-5.57
2022-12-14T18:25:08.507Z,-5.56
2022-12-14T18:27:38.518Z,-5.55
2022-12-14T18:30:12.120Z,-5.52
2022-12-14T18:32:51.881Z,-5.53
2022-12-14T18:35:26.226Z,-5.47
2022-12-14T18:37:56.833Z,-5.47
2022-12-14T18:40:29.496Z,-5.47
2022-12-14T18:42:58.893Z,-5.45
2022-12-14T18:45:33.806Z,-5.42
2022-12-14T18:48:10.879Z,-5.42
2022-12-14T18:50:49.667Z,-5.38
2022-12-14T18:53:21.760Z,-5.35
2022-12-14T18:56:01.712Z,-5.36
2022-12-14T18:58:45.581Z,-5.32
2022-12-14T19:01:18.520Z,-5.29
2022-12-14T19:03:49.012Z,-5.28
2022-12-14T19:06:43.615Z,-5.27
2022-12-14T19:09:13.413Z,-5.24
2022-12-14T19:11:48.134Z,-5.22
2022-12-14T19:14:20.446Z,-5.21
2022-12-14T19:16:52.182Z,-5.21
2022-12-14T19:19:24.296Z,-5.18
2022-12-14T19:21:57.615Z,-5.17
2022-12-14T19:24:27.760Z,-5.17
2022-12-14T19:26:58.519Z,-5.14
2022-12-14T19:29:28.452Z,-5.14
2022-12-14T19:32:05.327Z,-5.12
2022-12-14T19:34:36.841Z,-5.12
2022-12-14T19:37:06.967Z,-5.08
2022-12-14T19:39:37.721Z,-5.05
2022-12-14T19:42:07.103Z,-5.00
2022-12-14T19:44:36.860Z,-5.01
2022-12-14T19:47:06.449Z,-4.97
2022-12-14T19:49:36.086Z,-4.97
2022-12-14T19:52:09.080Z,-4.94
2022-12-14T19:54:39.559Z,-4.92
2022-12-14T19:57:11.081Z,-4.90
2022-12-14T19:59:44.876Z,-4.88
2022-12-14T20:02:15.087Z,-4.90
2022-12-14T20:04:47.029Z,-4.85
2022-12-14T20:07:16.682Z,-4.85
2022-12-14T20:09:47.685Z,-4.84
2022-12-14T20:12:18.060Z,-4.84
2022-12-14T20:14:49.344Z,-4.85
2022-12-14T20:17:19.387Z,-4.80
2022-12-14T20:19:48.789Z,-4.80
2022-12-14T20:22:18.165Z,-4.80
2022-12-14T20:24:48.277Z,-4.77
2022-12-14T20:27:20.018Z,-4.76
2022-12-14T20:29:50.973Z,-4.76
2022-12-14T20:32:20.097Z,-4.73
2022-12-14T20:34:49.567Z,-4.72
2022-12-14T20:37:34.276Z,-4.70
2022-12-14T20:40:02.415Z,-4.67
2022-12-14T20:42:31.431Z,-4.67
2022-12-14T20:45:06.702Z,-4.64
2022-12-14T20:47:36.180Z,-4.66
2022-12-14T20:50:06.258Z,-4.64
2022-12-14T20:52:35.211Z,-4.60
2022-12-14T20:55:04.672Z,-4.62
2022-12-14T20:57:33.747Z,-4.60
2022-12-14T21:00:05.620Z,-4.59
2022-12-14T21:02:34.439Z,-4.62
2022-12-14T21:05:04.421Z,-4.59
2022-12-14T21:07:33.253Z,-4.57
2022-12-14T21:10:04.944Z,-4.57
2022-12-14T21:12:36.375Z,-4.56
2022-12-14T21:15:06.841Z,-4.55
2022-12-14T21:17:35.729Z,-4.52
2022-12-14T21:20:05.702Z,-4.50
2022-12-14T21:22:35.163Z,-4.52
2022-12-14T21:25:06.385Z,-4.50
2022-12-14T21:27:38.406Z,-4.49
2022-12-14T21:30:13.477Z,-4.48
2022-12-14T21:32:42.392Z,-4.46
2022-12-14T21:35:12.695Z,-4.41
2022-12-14T21:37:42.267Z,-4.42
2022-12-14T21:40:33.693Z,-4.39
2022-12-14T21:43:07.249Z,-4.41
2022-12-14T21:45:38.975Z,-4.36
2022-12-14T21:48:08.007Z,-4.36
2022-12-14T21:50:42.318Z,-4.35
2022-12-14T21:53:11.359Z,-4.31
2022-12-14T21:55:49.336Z,-4.28
2022-12-14T21:58:18.223Z,-4.29
2022-12-14T22:00:47.772Z,-4.29
2022-12-14T22:03:16.988Z,-4.25
2022-12-14T22:05:46.573Z,-4.27
2022-12-14T22:08:15.299Z,-4.24
2022-12-14T22:10:44.273Z,-4.24
2022-12-14T22:13:15.486Z,-4.21
2022-12-14T22:15:46.223Z,-4.19
2022-12-14T22:18:18.384Z,-4.17
2022-12-14T22:20:50.638Z,-4.17
2022-12-14T22:23:19.598Z,-4.15
2022-12-14T22:25:50.186Z,-4.14
2022-12-14T22:28:18.929Z,-4.17
2022-12-14T22:30:48.370Z,-4.15
2022-12-14T22:33:17.910Z,-4.14
2022-12-14T22:35:47.516Z,-4.15
2022-12-14T22:38:16.586Z,-4.14
2022-12-14T22:40:46.098Z,-4.13
2022-12-14T22:43:14.984Z,-4.14
2022-12-14T22:45:44.317Z,-4.14
2022-12-14T22:48:14.004Z,-4.13
2022-12-14T22:50:43.360Z,-4.11
2022-12-14T22:53:13.445Z,-4.08
2022-12-14T22:55:46.296Z,-4.13
2022-12-14T22:58:19.723Z,-4.11
2022-12-14T23:00:49.668Z,-4.10
2022-12-14T23:03:18.489Z,-4.13
2022-12-14T23:05:50.223Z,-4.11
2022-12-14T23:08:18.957Z,-4.13
2022-12-14T23:11:06.685Z,-4.14
2022-12-14T23:13:53.769Z,-4.13
2022-12-14T23:16:41.074Z,-4.14
2022-12-14T23:19:28.175Z,-4.11
2022-12-14T23:22:15.156Z,-4.15
2022-12-14T23:25:02.230Z,-4.14
2022-12-14T23:27:49.328Z,-4.18
2022-12-14T23:30:37.227Z,-4.17
2022-12-14T23:33:24.286Z,-4.17
2022-12-14T23:36:11.398Z,-4.17
2022-12-14T23:38:58.892Z,-4.21
2022-12-14T23:41:47.068Z,-4.18
2022-12-14T23:44:34.423Z,-4.18
2022-12-14T23:47:24.300Z,-4.22
2022-12-14T23:50:11.768Z,-4.22
2022-12-14T23:52:59.046Z,-4.22
2022-12-14T23:55:49.716Z,-4.25
2022-12-14T23:58:37.047Z,-4.27
